Time;durP1;ratioP1;P1;durP2;ratioP2;P2;SDS_P1;SDS_P2;PMS_P1;PMS_P2;Temp;Humidity;BMP_temperature;BMP_pressure;BME280_temperature;BME280_humidity;BME280_pressure;Samples;Min_cycle;Max_cycle;Signal;HPM_P1;HPM_P2
2023/05/14 00:00:48;;;;;;;2.70;0.80;;;;;;;21.66;56.60;100979.47;5095027;28;20048;-56
2023/05/14 00:03:15;;;;;;;2.60;0.73;;;;;;;21.66;56.64;100982.16;5095011;28;20067;-56
2023/05/14 00:05:43;;;;;;;1.58;0.70;;;;;;;21.66;56.57;100971.41;5094919;28;20039;-56
2023/05/14 00:08:10;;;;;;;1.75;0.70;;;;;;;21.65;56.57;100969.69;5095157;28;20055;-56
2023/05/14 00:10:37;;;;;;;1.92;0.70;;;;;;;21.65;56.62;100970.53;5094855;28;20069;-56
2023/05/14 00:13:05;;;;;;;2.65;0.90;;;;;;;21.65;56.60;100959.78;5094768;28;20048;-56
2023/05/14 00:15:32;;;;;;;1.65;0.80;;;;;;;21.66;56.69;100960.63;5094655;28;20507;-57
2023/05/14 00:18:00;;;;;;;1.90;0.88;;;;;;;21.65;56.64;100958.94;5094762;28;20407;-56
2023/05/14 00:20:28;;;;;;;3.78;0.80;;;;;;;21.65;56.67;100964.31;5094792;28;20071;-46
2023/05/14 00:22:55;;;;;;;1.83;0.90;;;;;;;21.64;56.69;100960.78;5093783;28;20044;-47
2023/05/14 00:25:22;;;;;;;3.05;0.82;;;;;;;21.65;56.67;100956.22;5094614;28;20387;-47
2023/05/14 00:27:50;;;;;;;1.92;0.80;;;;;;;21.68;56.62;100961.34;5094527;28;20044;-47
2023/05/14 00:30:17;;;;;;;1.77;0.90;;;;;;;21.68;56.51;100954.09;5094516;28;20052;-47
2023/05/14 00:32:44;;;;;;;2.90;0.77;;;;;;;21.69;56.55;100960.34;5094353;28;20055;-47
2023/05/14 00:35:11;;;;;;;2.30;0.90;;;;;;;21.68;56.62;100958.66;5093394;28;20368;-47
2023/05/14 00:37:39;;;;;;;2.30;0.77;;;;;;;21.68;56.47;100962.19;5094303;28;20044;-47
2023/05/14 00:40:07;;;;;;;2.70;0.80;;;;;;;21.68;56.62;100964.03;5094482;28;20056;-48
2023/05/14 00:42:35;;;;;;;1.40;0.60;;;;;;;21.67;56.64;100956.91;5092991;28;20059;-47
2023/05/14 00:45:02;;;;;;;2.08;0.80;;;;;;;21.68;56.66;100958.66;5092885;28;20060;-47
2023/05/14 00:47:30;;;;;;;1.80;0.60;;;;;;;21.67;56.68;100959.63;5094247;28;20487;-47
2023/05/14 00:49:57;;;;;;;2.10;0.80;;;;;;;21.68;56.70;100959.50;5094061;28;20414;-56
2023/05/14 00:52:25;;;;;;;2.83;0.80;;;;;;;21.66;56.62;100949.84;5094100;28;20040;-57
2023/05/14 00:54:53;;;;;;;1.80;1.00;;;;;;;21.67;56.74;100954.22;5093841;28;20051;-58
2023/05/14 00:57:20;;;;;;;2.58;0.90;;;;;;;21.66;56.70;100945.28;5093817;28;20036;-56
2023/05/14 00:59:48;;;;;;;2.30;1.10;;;;;;;21.66;56.78;100947.16;5092725;28;20059;-56
2023/05/14 01:02:15;;;;;;;1.75;0.80;;;;;;;21.66;56.77;100950.69;5093739;28;20051;-57
2023/05/14 01:04:42;;;;;;;3.05;1.23;;;;;;;21.66;56.92;100941.75;5092922;28;20518;-57
2023/05/14 01:07:25;;;;;;;1.67;0.73;;;;;;;21.65;57.04;100937.38;5092829;28;20044;-57
2023/05/14 01:10:01;;;;;;;2.45;1.00;;;;;;;21.65;56.93;100943.59;5093885;28;20044;-57
2023/05/14 01:12:47;;;;;;;2.65;0.75;;;;;;;21.64;56.96;100938.38;5094076;28;20052;-57
2023/05/14 01:15:28;;;;;;;1.60;0.70;;;;;;;21.64;56.97;100933.84;5092825;28;20044;-57
2023/05/14 01:18:00;;;;;;;2.75;1.13;;;;;;;21.64;56.82;100925.75;5092691;28;20074;-56
2023/05/14 01:20:28;;;;;;;2.20;0.93;;;;;;;21.64;56.98;100923.06;5093665;28;20056;-48
2023/05/14 01:22:56;;;;;;;2.15;1.08;;;;;;;21.63;57.00;100924.06;5093788;28;20055;-47
2023/05/14 01:25:24;;;;;;;1.92;0.90;;;;;;;21.63;56.96;100929.44;5092684;28;20075;-46
2023/05/14 01:28:11;;;;;;;3.15;1.00;;;;;;;21.62;57.00;100914.25;5092594;28;20048;-47
2023/05/14 01:30:44;;;;;;;1.90;0.90;;;;;;;21.63;57.00;100910.59;5092606;28;20056;-56
2023/05/14 01:33:18;;;;;;;2.35;0.82;;;;;;;21.63;57.07;100912.41;5092281;28;20051;-56
2023/05/14 01:35:47;;;;;;;2.22;0.90;;;;;;;21.63;56.97;100904.31;5093547;28;20047;-56
2023/05/14 01:38:17;;;;;;;2.65;1.00;;;;;;;21.62;57.01;100902.63;5093332;28;20071;-57
2023/05/14 01:40:46;;;;;;;2.13;0.82;;;;;;;21.62;56.94;100898.09;5092031;28;20048;-56
2023/05/14 01:43:15;;;;;;;1.63;0.82;;;;;;;21.61;56.93;100888.31;5092265;28;20436;-57
2023/05/14 01:45:42;;;;;;;3.17;0.90;;;;;;;21.62;56.92;100884.63;5092391;28;20055;-56
2023/05/14 01:48:10;;;;;;;1.95;0.82;;;;;;;21.61;56.93;100872.16;5093448;28;20051;-56
2023/05/14 01:50:38;;;;;;;3.60;1.10;;;;;;;21.62;56.96;100871.16;5092085;28;20055;-47
2023/05/14 01:53:05;;;;;;;3.08;1.38;;;;;;;21.61;56.89;100869.44;5091922;28;20060;-46
2023/05/14 01:55:32;;;;;;;2.50;0.95;;;;;;;21.62;56.87;100864.91;5093370;28;20055;-46
2023/05/14 01:58:00;;;;;;;2.78;1.40;;;;;;;21.61;56.90;100861.38;5092285;28;20048;-46
2023/05/14 02:00:27;;;;;;;3.10;0.98;;;;;;;21.61;56.93;100861.38;5093409;28;20051;-47
2023/05/14 02:02:54;;;;;;;2.30;1.38;;;;;;;21.61;56.93;100863.22;5093430;28;20407;-46
2023/05/14 02:05:22;;;;;;;1.42;0.80;;;;;;;21.61;56.99;100847.06;5093552;28;20379;-47
2023/05/14 02:07:50;;;;;;;2.70;1.13;;;;;;;21.61;56.98;100855.13;5092212;28;20052;-48
2023/05/14 02:10:17;;;;;;;1.92;1.00;;;;;;;21.60;56.90;100862.38;5092450;28;20407;-48
2023/05/14 02:12:48;;;;;;;3.28;1.05;;;;;;;21.60;56.92;100854.28;5091975;28;20060;-46
2023/05/14 02:15:16;;;;;;;2.08;0.98;;;;;;;21.60;56.86;100862.38;5092058;28;20047;-48
2023/05/14 02:17:43;;;;;;;2.58;1.13;;;;;;;21.60;56.93;100864.22;5093280;28;20044;-48
2023/05/14 02:20:11;;;;;;;2.97;1.48;;;;;;;21.60;57.00;100865.06;5093179;28;20048;-47
2023/05/14 02:22:44;;;;;;;1.92;1.17;;;;;;;21.60;57.03;100867.75;5092997;28;20051;-48
2023/05/14 02:25:11;;;;;;;2.10;0.98;;;;;;;21.60;57.06;100865.06;5093110;28;20403;-47
2023/05/14 02:27:39;;;;;;;1.73;0.90;;;;;;;21.61;56.98;100860.53;5093030;28;20044;-50
2023/05/14 02:30:07;;;;;;;2.10;0.88;;;;;;;21.59;56.97;100852.59;5091827;28;20048;-49
2023/05/14 02:32:35;;;;;;;2.40;1.23;;;;;;;21.59;56.97;100858.00;5092904;28;20052;-50
2023/05/14 02:35:02;;;;;;;3.03;1.13;;;;;;;21.60;56.90;100848.06;5093086;28;20115;-47
2023/05/14 02:37:29;;;;;;;1.70;1.00;;;;;;;21.59;57.03;100852.59;5092728;28;20047;-47
2023/05/14 02:39:57;;;;;;;1.92;1.02;;;;;;;21.59;56.97;100854.41;5093601;28;20052;-46
2023/05/14 02:42:24;;;;;;;2.30;1.10;;;;;;;21.59;56.89;100847.22;5092071;28;20504;-46
2023/05/14 02:44:51;;;;;;;1.55;0.70;;;;;;;21.59;57.02;100836.44;5091867;28;20048;-50
2023/05/14 02:47:19;;;;;;;2.30;1.00;;;;;;;21.58;56.94;100834.72;5093896;28;20476;-46
2023/05/14 02:49:46;;;;;;;2.10;1.10;;;;;;;21.57;57.03;100835.72;5096429;28;20052;-46
2023/05/14 02:52:14;;;;;;;1.90;0.85;;;;;;;21.58;56.90;100834.72;5096331;28;20047;-47
2023/05/14 02:54:41;;;;;;;2.03;0.90;;;;;;;21.59;56.93;100831.06;5095479;28;20059;-47
2023/05/14 02:57:09;;;;;;;1.65;0.80;;;;;;;21.58;56.99;100825.78;5096468;28;20487;-47
2023/05/14 02:59:36;;;;;;;2.60;1.10;;;;;;;21.57;57.02;100819.56;5096415;28;20048;-51
2023/05/14 03:02:04;;;;;;;2.00;0.80;;;;;;;21.58;57.01;100821.25;5095240;28;20048;-48
2023/05/14 03:04:32;;;;;;;1.85;0.75;;;;;;;21.56;57.01;100809.78;5096236;28;20043;-48
2023/05/14 03:07:00;;;;;;;2.25;1.20;;;;;;;21.58;56.98;100812.31;5094769;28;20048;-49
2023/05/14 03:09:27;;;;;;;2.42;1.10;;;;;;;21.57;56.97;100806.09;5096059;28;20488;-53
2023/05/14 03:11:55;;;;;;;3.53;1.27;;;;;;;21.57;56.94;100798.00;5095998;28;20052;-57
2023/05/14 03:14:22;;;;;;;2.92;0.98;;;;;;;21.56;56.94;100804.41;5094997;28;20048;-57
2023/05/14 03:16:50;;;;;;;2.13;0.95;;;;;;;21.57;56.93;100800.69;5095928;28;20055;-57
2023/05/14 03:19:17;;;;;;;1.88;1.08;;;;;;;21.58;56.95;100806.94;5094804;28;20044;-57
2023/05/14 03:21:44;;;;;;;2.28;1.02;;;;;;;21.56;56.89;100804.41;5095850;28;20044;-58
2023/05/14 03:24:12;;;;;;;2.10;1.13;;;;;;;21.56;56.93;100804.41;5095868;28;20043;-57
2023/05/14 03:26:40;;;;;;;1.73;0.98;;;;;;;21.57;57.01;100799.84;5095692;28;20376;-57
2023/05/14 03:29:08;;;;;;;1.80;1.00;;;;;;;21.57;56.93;100799.84;5095790;28;20079;-57
2023/05/14 03:31:36;;;;;;;1.88;0.80;;;;;;;21.56;57.05;100804.41;5095654;28;20050;-51
2023/05/14 03:34:03;;;;;;;1.42;0.65;;;;;;;21.56;57.02;100806.25;5095373;28;20055;-50
2023/05/14 03:36:30;;;;;;;1.85;0.80;;;;;;;21.55;56.96;100802.69;5094724;28;20052;-47
2023/05/14 03:38:58;;;;;;;1.63;0.85;;;;;;;21.56;57.04;100809.78;5095402;28;20048;-48
2023/05/14 03:41:25;;;;;;;1.25;0.60;;;;;;;21.55;56.99;100813.44;5095652;28;20044;-47
2023/05/14 03:43:52;;;;;;;2.22;1.05;;;;;;;21.57;56.95;100810.63;5095431;28;20040;-49
2023/05/14 03:46:20;;;;;;;1.70;0.90;;;;;;;21.57;57.00;100810.63;5094287;28;20055;-47
2023/05/14 03:48:47;;;;;;;1.52;0.90;;;;;;;21.55;56.96;100802.69;5093624;28;20519;-47
2023/05/14 03:51:15;;;;;;;1.90;1.00;;;;;;;21.56;56.90;100803.56;5093733;28;20048;-57
2023/05/14 03:53:42;;;;;;;4.18;0.98;;;;;;;21.55;57.03;100805.38;5095102;28;20047;-57
2023/05/14 03:56:10;;;;;;;1.20;0.70;;;;;;;21.56;56.97;100803.56;5093643;28;20052;-57
2023/05/14 03:58:37;;;;;;;2.42;1.05;;;;;;;21.55;56.95;100807.22;5094578;28;20036;-58
2023/05/14 04:01:04;;;;;;;2.40;1.05;;;;;;;21.56;57.07;100806.25;5095208;28;20048;-47
2023/05/14 04:03:31;;;;;;;3.08;1.05;;;;;;;21.55;57.08;100810.75;5094944;28;20051;-48
2023/05/14 04:05:59;;;;;;;2.08;0.80;;;;;;;21.56;57.09;100803.56;5095170;28;20047;-47
2023/05/14 04:08:26;;;;;;;1.45;0.65;;;;;;;21.56;57.11;100808.94;5094979;28;20479;-47
2023/05/14 04:10:55;;;;;;;1.95;0.85;;;;;;;21.55;57.06;100808.06;5093534;28;20053;-57
2023/05/14 04:13:23;;;;;;;1.70;0.75;;;;;;;21.55;56.98;100805.38;5093533;28;20059;-57
2023/05/14 04:15:50;;;;;;;2.33;0.80;;;;;;;21.55;57.05;100809.91;5093665;28;20056;-57
2023/05/14 04:18:17;;;;;;;1.80;0.88;;;;;;;21.55;57.00;100810.75;5094607;28;20040;-57
2023/05/14 04:20:45;;;;;;;2.08;0.85;;;;;;;21.54;57.04;100811.75;5094747;28;20062;-57
2023/05/14 04:23:12;;;;;;;1.17;0.55;;;;;;;21.53;57.01;100820.84;5094677;28;20052;-57
2023/05/14 04:25:39;;;;;;;2.05;0.90;;;;;;;21.54;57.07;100822.53;5094519;28;20048;-57
2023/05/14 04:28:07;;;;;;;2.15;0.80;;;;;;;21.53;57.06;100812.75;5093388;28;20039;-57
2023/05/14 04:30:34;;;;;;;3.55;0.90;;;;;;;21.52;56.99;100819.16;5094749;28;20048;-57
2023/05/14 04:33:01;;;;;;;2.95;1.00;;;;;;;21.53;56.99;100823.53;5094065;28;20514;-57
2023/05/14 04:35:29;;;;;;;2.08;1.10;;;;;;;21.54;57.08;100819.84;5094493;28;20380;-57
2023/05/14 04:37:56;;;;;;;1.58;0.73;;;;;;;21.51;56.99;100817.44;5094362;28;20044;-57
2023/05/14 04:40:23;;;;;;;1.70;0.70;;;;;;;21.51;57.06;100817.44;5094270;28;20052;-47
2023/05/14 04:42:51;;;;;;;1.55;0.80;;;;;;;21.51;56.96;100822.81;5094393;28;20044;-49
2023/05/14 04:45:19;;;;;;;1.98;0.57;;;;;;;21.53;57.00;100820.00;5094357;28;20495;-48
2023/05/14 04:47:46;;;;;;;2.15;1.00;;;;;;;21.53;57.04;100820.00;5094192;28;20036;-57
2023/05/14 04:50:13;;;;;;;1.40;0.70;;;;;;;21.52;57.00;100813.78;5094090;28;20052;-57
2023/05/14 04:52:41;;;;;;;2.83;1.02;;;;;;;21.51;56.97;100812.03;5093968;28;20549;-57
2023/05/14 04:55:08;;;;;;;1.73;0.93;;;;;;;21.51;56.93;100813.91;5093972;28;20048;-57
2023/05/14 04:57:36;;;;;;;2.45;0.80;;;;;;;21.51;56.94;100819.28;5093708;28;20529;-57
2023/05/14 05:00:08;;;;;;;2.58;1.23;;;;;;;21.50;56.84;100815.75;5094405;28;20048;-57
2023/05/14 05:02:35;;;;;;;1.88;1.05;;;;;;;21.51;56.87;100819.28;5093947;28;20044;-57
2023/05/14 05:05:03;;;;;;;1.42;0.80;;;;;;;21.50;56.94;100815.75;5093991;28;20044;-57
2023/05/14 05:07:30;;;;;;;1.52;0.70;;;;;;;21.51;56.88;100824.66;5093968;28;20058;-57
2023/05/14 05:09:57;;;;;;;1.52;0.75;;;;;;;21.50;56.89;100821.13;5093298;28;20036;-57
2023/05/14 05:12:28;;;;;;;1.75;0.93;;;;;;;21.50;56.94;100823.81;5093948;28;20055;-57
2023/05/14 05:14:56;;;;;;;1.70;0.90;;;;;;;21.50;57.01;100818.44;5093819;28;20047;-57
2023/05/14 05:17:24;;;;;;;1.42;0.68;;;;;;;21.50;56.92;100815.75;5093784;28;20044;-57
2023/05/14 05:19:51;;;;;;;1.63;0.80;;;;;;;21.49;56.96;100814.06;5093760;28;20048;-48
2023/05/14 05:22:19;;;;;;;1.70;0.98;;;;;;;21.50;56.88;100815.75;5093812;28;20392;-47
2023/05/14 05:24:46;;;;;;;1.52;0.70;;;;;;;21.50;57.00;100818.44;5093751;28;20051;-47
2023/05/14 05:27:16;;;;;;;1.27;0.65;;;;;;;21.50;56.97;100821.13;5093872;28;20056;-48
2023/05/14 05:29:43;;;;;;;1.80;0.73;;;;;;;21.49;56.92;100814.06;5093585;28;20040;-57
2023/05/14 05:32:11;;;;;;;2.58;0.77;;;;;;;21.48;57.01;100810.50;5093387;28;20071;-57
2023/05/14 05:34:38;;;;;;;1.75;0.60;;;;;;;21.50;56.98;100809.50;5093700;28;20048;-57
2023/05/14 05:37:05;;;;;;;2.90;1.27;;;;;;;21.47;56.90;100816.91;5093560;28;20059;-57
2023/05/14 05:39:33;;;;;;;2.65;0.90;;;;;;;21.48;57.01;100817.75;5093421;28;20409;-57
2023/05/14 05:42:01;;;;;;;2.00;0.93;;;;;;;21.48;56.86;100818.59;5093572;28;20059;-48
2023/05/14 05:44:28;;;;;;;2.40;0.68;;;;;;;21.48;56.92;100812.38;5093468;28;20059;-51
2023/05/14 05:46:56;;;;;;;1.33;0.60;;;;;;;21.48;56.84;100812.38;5093419;28;20052;-52
2023/05/14 05:49:24;;;;;;;1.48;0.77;;;;;;;21.48;56.94;100818.59;5093283;28;20047;-48
2023/05/14 05:51:51;;;;;;;2.63;0.90;;;;;;;21.47;56.81;100818.72;5093381;28;20056;-47
2023/05/14 05:54:18;;;;;;;1.33;0.77;;;;;;;21.48;56.73;100829.38;5093414;28;20388;-47
2023/05/14 05:56:53;;;;;;;1.80;0.90;;;;;;;21.48;56.86;100828.53;5092979;28;20040;-58
2023/05/14 05:59:20;;;;;;;1.80;0.80;;;;;;;21.47;56.85;100826.81;5092884;28;20484;-58
2023/05/14 06:01:48;;;;;;;1.60;0.75;;;;;;;21.47;56.88;100824.97;5093310;28;20051;-57
2023/05/14 06:04:15;;;;;;;1.85;0.80;;;;;;;21.46;56.88;100825.09;5093102;28;20400;-57
2023/05/14 06:06:42;;;;;;;1.98;0.93;;;;;;;21.47;56.85;100822.28;5093225;28;20055;-57
2023/05/14 06:09:10;;;;;;;2.70;1.02;;;;;;;21.47;56.84;100813.34;5093180;28;20047;-58
2023/05/14 06:11:37;;;;;;;1.08;0.55;;;;;;;21.48;57.17;100820.44;5093350;28;20040;-47
2023/05/14 06:14:04;;;;;;;2.10;0.60;;;;;;;21.50;56.99;100821.13;5093084;28;20048;-47
2023/05/14 06:16:31;;;;;;;1.83;0.73;;;;;;;21.50;56.76;100804.13;5093050;28;20383;-47
2023/05/14 06:18:59;;;;;;;2.17;0.80;;;;;;;21.50;56.86;100804.13;5093226;28;20048;-48
2023/05/14 06:21:26;;;;;;;1.40;0.70;;;;;;;21.49;56.80;100803.28;5094479;28;20051;-57
2023/05/14 06:23:53;;;;;;;1.42;0.73;;;;;;;21.48;56.86;100790.81;5097039;28;20044;-57
2023/05/14 06:26:20;;;;;;;1.65;0.90;;;;;;;21.48;56.86;100788.13;5097048;28;20040;-57
2023/05/14 06:28:48;;;;;;;1.73;0.95;;;;;;;21.47;56.82;100795.34;5096783;28;20051;-57
2023/05/14 06:31:15;;;;;;;1.77;0.73;;;;;;;21.47;56.82;100795.34;5097129;28;20051;-57
2023/05/14 06:33:42;;;;;;;1.63;0.93;;;;;;;21.47;56.88;100799.88;5096706;28;20052;-57
2023/05/14 06:36:10;;;;;;;1.55;0.70;;;;;;;21.47;56.81;100798.06;5096912;28;20044;-57
2023/05/14 06:38:37;;;;;;;1.88;0.80;;;;;;;21.47;56.86;100794.47;5096774;28;20040;-57
2023/05/14 06:41:05;;;;;;;1.92;0.80;;;;;;;21.47;56.92;100795.34;5096750;28;20039;-46
2023/05/14 06:43:32;;;;;;;1.67;0.90;;;;;;;21.46;57.09;100796.31;5096681;28;20369;-47
2023/05/14 06:46:00;;;;;;;2.38;0.90;;;;;;;21.47;56.84;100799.88;5096639;28;20063;-47
2023/05/14 06:48:28;;;;;;;1.70;0.80;;;;;;;21.47;56.87;100802.56;5096706;28;20051;-47
2023/05/14 06:50:55;;;;;;;1.38;0.75;;;;;;;21.45;57.07;100786.56;5096606;28;20062;-47
2023/05/14 06:53:23;;;;;;;2.40;0.75;;;;;;;21.46;57.16;100799.03;5096694;28;20048;-47
2023/05/14 06:55:50;;;;;;;1.85;0.93;;;;;;;21.46;56.86;100787.41;5096525;28;20051;-48
2023/05/14 06:58:17;;;;;;;3.35;1.00;;;;;;;21.46;56.93;100798.19;5096162;28;20055;-46
2023/05/14 07:00:44;;;;;;;1.20;0.65;;;;;;;21.47;56.86;100805.25;5095945;28;20051;-57
2023/05/14 07:03:12;;;;;;;2.17;0.73;;;;;;;21.46;56.96;100803.56;5096345;28;20044;-58
2023/05/14 07:05:40;;;;;;;2.00;0.82;;;;;;;21.47;56.98;100797.19;5096165;28;20044;-58
2023/05/14 07:08:07;;;;;;;2.40;0.70;;;;;;;21.46;56.89;100792.78;5096272;28;20480;-48
2023/05/14 07:10:34;;;;;;;2.13;0.73;;;;;;;21.46;56.98;100793.63;5096116;28;20047;-57
2023/05/14 07:13:02;;;;;;;1.42;0.70;;;;;;;21.46;56.96;100792.78;5096085;28;20048;-57
2023/05/14 07:15:29;;;;;;;1.77;0.80;;;;;;;21.45;56.94;100791.94;5096133;28;20055;-57
2023/05/14 07:17:57;;;;;;;1.50;0.65;;;;;;;21.45;57.08;100783.88;5096171;28;20071;-57
2023/05/14 07:20:24;;;;;;;2.47;0.70;;;;;;;21.46;57.02;100782.88;5096110;28;20048;-57
2023/05/14 07:22:52;;;;;;;1.08;0.63;;;;;;;21.46;56.94;100779.31;5095892;28;20059;-57
2023/05/14 07:25:19;;;;;;;2.65;0.80;;;;;;;21.47;56.93;100778.31;5095836;28;20495;-57
2023/05/14 07:27:47;;;;;;;2.00;0.73;;;;;;;21.46;56.96;100779.31;5095812;28;20101;-57
2023/05/14 07:30:14;;;;;;;2.65;0.70;;;;;;;21.46;56.84;100780.16;5095863;28;20044;-57
2023/05/14 07:32:42;;;;;;;2.05;0.70;;;;;;;21.47;56.88;100783.72;5095075;28;20055;-57
2023/05/14 07:35:10;;;;;;;1.42;0.65;;;;;;;21.46;57.08;100772.09;5095721;28;20048;-57
2023/05/14 07:37:38;;;;;;;1.70;0.88;;;;;;;21.46;56.97;100777.47;5095608;28;20048;-57
2023/05/14 07:40:05;;;;;;;1.67;0.70;;;;;;;21.46;57.04;100771.25;5095389;28;20141;-48
2023/05/14 07:42:33;;;;;;;2.22;0.90;;;;;;;21.47;56.88;100772.94;5095623;28;20052;-47
2023/05/14 07:45:04;;;;;;;1.90;0.82;;;;;;;21.46;56.86;100774.78;5095653;28;20395;-48
2023/05/14 07:47:31;;;;;;;1.95;0.90;;;;;;;21.46;56.86;100769.41;5095621;28;20047;-47
2023/05/14 07:49:59;;;;;;;2.50;1.25;;;;;;;21.47;56.95;100772.94;5095629;28;20044;-57
2023/05/14 07:52:26;;;;;;;1.73;0.85;;;;;;;21.46;56.95;100769.41;5095438;28;20043;-57
2023/05/14 07:54:53;;;;;;;2.00;0.82;;;;;;;21.47;56.92;100771.13;5095147;28;20055;-57
2023/05/14 07:57:21;;;;;;;1.80;0.88;;;;;;;21.46;56.97;100772.09;5093939;28;20048;-57
2023/05/14 07:59:48;;;;;;;1.38;0.75;;;;;;;21.47;57.06;100771.13;5094962;28;20048;-57
2023/05/14 08:02:16;;;;;;;1.85;0.90;;;;;;;21.47;56.91;100770.25;5095028;28;20380;-57
2023/05/14 08:04:44;;;;;;;1.88;0.75;;;;;;;21.47;56.91;100767.53;5094591;28;20047;-57
2023/05/14 08:07:11;;;;;;;1.65;0.88;;;;;;;21.46;56.88;100764.00;5094766;28;20503;-58
2023/05/14 08:09:38;;;;;;;1.38;0.68;;;;;;;21.45;56.98;100754.25;5094983;28;20048;-57
2023/05/14 08:12:07;;;;;;;4.95;1.00;;;;;;;21.45;56.94;100756.94;5095037;28;20044;-57
2023/05/14 08:14:34;;;;;;;2.15;1.00;;;;;;;21.47;57.16;100756.78;5094836;28;20047;-57
2023/05/14 08:17:02;;;;;;;2.22;1.08;;;;;;;21.47;57.23;100762.16;5094721;28;20047;-57
2023/05/14 08:19:29;;;;;;;1.90;0.80;;;;;;;21.48;57.29;100763.88;5094753;28;20044;-57
2023/05/14 08:21:57;;;;;;;2.03;0.95;;;;;;;21.49;57.34;100760.19;5093116;28;20056;-46
2023/05/14 08:24:24;;;;;;;2.25;0.88;;;;;;;21.48;57.46;100770.13;5093868;28;20055;-48
2023/05/14 08:26:52;;;;;;;3.25;0.90;;;;;;;21.50;57.46;100761.03;5094191;28;20388;-49
2023/05/14 08:29:19;;;;;;;1.95;1.00;;;;;;;21.49;57.50;100762.88;5094168;28;20048;-47
2023/05/14 08:31:48;;;;;;;2.00;0.93;;;;;;;21.49;57.55;100765.56;5093857;28;20380;-59
2023/05/14 08:34:16;;;;;;;1.88;0.88;;;;;;;21.51;57.50;100766.25;5094325;28;20530;-60
2023/05/14 08:36:43;;;;;;;1.33;0.70;;;;;;;21.52;57.58;100761.75;5094188;28;20055;-49
2023/05/14 08:39:10;;;;;;;2.90;1.00;;;;;;;21.51;57.46;100749.25;5093809;28;20059;-51
2023/05/14 08:41:39;;;;;;;3.30;0.82;;;;;;;21.51;57.41;100757.34;5094344;28;20047;-59
2023/05/14 08:44:12;;;;;;;1.67;0.80;;;;;;;21.50;57.75;100753.78;5092116;28;20063;-60
2023/05/14 08:46:40;;;;;;;3.28;1.13;;;;;;;21.50;57.83;100742.19;5094017;28;20051;-60
2023/05/14 08:49:20;;;;;;;3.00;1.00;;;;;;;21.50;57.47;100750.25;5093542;28;20412;-63
2023/05/14 08:51:48;;;;;;;4.97;1.20;;;;;;;21.50;57.29;100737.63;5093746;28;20047;-60
2023/05/14 08:54:16;;;;;;;1.80;0.80;;;;;;;21.48;57.44;100737.78;5093352;28;20048;-60
2023/05/14 08:56:45;;;;;;;1.52;0.63;;;;;;;21.50;57.41;100745.72;5093777;28;20055;-60
2023/05/14 08:59:12;;;;;;;3.03;1.13;;;;;;;21.49;57.43;100733.25;5093812;28;20044;-60
2023/05/14 09:01:46;;;;;;;2.20;0.98;;;;;;;21.50;57.53;100729.56;5093702;28;20044;-60
2023/05/14 09:04:15;;;;;;;2.58;0.82;;;;;;;21.50;57.55;100724.16;5084064;28;20055;-59
2023/05/14 09:06:43;;;;;;;2.22;0.80;;;;;;;21.51;57.58;100728.53;5084580;28;20067;-59
2023/05/14 09:09:11;;;;;;;1.83;0.73;;;;;;;21.50;57.53;100734.94;5093643;28;20047;-59
2023/05/14 09:11:45;;;;;;;2.08;0.82;;;;;;;21.53;57.52;100734.66;5093620;28;20032;-60
2023/05/14 09:14:12;;;;;;;1.70;0.90;;;;;;;21.54;57.35;100733.66;5072393;28;20476;-59
2023/05/14 09:16:43;;;;;;;1.75;0.90;;;;;;;21.53;57.18;100734.66;5073615;28;20051;-59
2023/05/14 09:19:12;;;;;;;3.67;0.98;;;;;;;21.53;56.94;100734.66;5073197;28;20412;-61
2023/05/14 09:21:40;;;;;;;3.50;0.88;;;;;;;21.53;57.06;100733.81;5072409;28;20487;-60
2023/05/14 09:24:08;;;;;;;2.47;0.88;;;;;;;21.54;56.94;100735.50;5073148;28;20048;-61
2023/05/14 09:26:35;;;;;;;2.38;0.90;;;;;;;21.54;56.96;100732.81;5072905;28;20040;-60
2023/05/14 09:29:03;;;;;;;2.20;0.88;;;;;;;21.53;56.91;100723.88;5072950;28;20501;-60
2023/05/14 09:31:32;;;;;;;2.00;0.70;;;;;;;21.54;56.68;100725.56;5073294;28;20067;-47
2023/05/14 09:33:59;;;;;;;3.20;0.98;;;;;;;21.54;56.77;100727.41;5072883;28;20115;-48
2023/05/14 09:36:27;;;;;;;3.10;0.90;;;;;;;21.54;56.93;100724.72;5072453;28;20049;-48
2023/05/14 09:38:57;;;;;;;1.80;0.88;;;;;;;21.54;56.98;100730.94;5073094;28;20400;-48
2023/05/14 09:41:25;;;;;;;4.60;0.90;;;;;;;21.56;56.79;100734.34;5073672;28;20048;-48
2023/05/14 09:43:52;;;;;;;2.33;0.80;;;;;;;21.58;57.04;100734.19;5094865;28;20046;-47
2023/05/14 09:46:20;;;;;;;2.95;0.70;;;;;;;21.58;57.10;100732.34;5080456;28;20423;-49
2023/05/14 09:48:49;;;;;;;1.92;0.80;;;;;;;21.60;57.12;100732.22;5078883;28;20052;-49
2023/05/14 09:51:19;;;;;;;3.45;0.98;;;;;;;21.60;56.99;100738.44;5092473;28;20047;-60
2023/05/14 09:53:47;;;;;;;6.85;2.53;;;;;;;21.63;57.23;100743.56;5092724;28;20047;-61
2023/05/14 09:56:15;;;;;;;4.15;1.60;;;;;;;21.64;57.18;100741.69;5095538;28;20415;-60
2023/05/14 09:58:42;;;;;;;3.45;1.35;;;;;;;21.62;57.09;100728.34;5083695;28;20044;-59
2023/05/14 10:01:10;;;;;;;3.35;2.05;;;;;;;21.62;56.83;100728.34;5076455;28;20362;-48
2023/05/14 10:03:38;;;;;;;4.28;1.77;;;;;;;21.62;56.40;100728.34;5076671;28;20501;-48
2023/05/14 10:06:06;;;;;;;3.10;1.55;;;;;;;21.60;56.23;100727.69;5076220;28;20056;-48
2023/05/14 10:08:35;;;;;;;3.05;1.63;;;;;;;21.60;56.23;100729.53;5076624;28;20051;-47
2023/05/14 10:11:11;;;;;;;3.47;1.52;;;;;;;21.60;56.37;100724.97;5088595;28;20044;-49
2023/05/14 10:13:44;;;;;;;4.60;1.98;;;;;;;21.62;56.41;100716.75;5089829;28;20419;-47
2023/05/14 10:16:27;;;;;;;3.50;2.00;;;;;;;21.61;56.52;100713.19;5075479;28;20048;-47
2023/05/14 10:19:05;;;;;;;4.25;1.90;;;;;;;21.63;56.70;100703.13;5076330;28;20071;-48
2023/05/14 10:21:35;;;;;;;3.78;2.10;;;;;;;21.62;56.46;100706.81;5076480;28;20044;-47
2023/05/14 10:24:04;;;;;;;5.82;2.78;;;;;;;21.63;56.40;100718.44;5076312;28;20052;-47
2023/05/14 10:26:37;;;;;;;6.10;2.72;;;;;;;21.60;56.07;100703.44;5094298;28;20048;-47
2023/05/14 10:29:05;;;;;;;5.22;2.47;;;;;;;21.61;56.02;100706.97;5096261;28;20048;-48
2023/05/14 10:31:52;;;;;;;6.00;2.25;;;;;;;21.59;56.13;100698.19;5096527;28;20043;-58
2023/05/14 10:34:36;;;;;;;4.75;2.58;;;;;;;21.57;56.14;100700.19;5094634;28;20052;-59
2023/05/14 10:37:25;;;;;;;5.57;2.30;;;;;;;21.56;56.03;100702.03;5096282;28;20048;-58
2023/05/14 10:39:55;;;;;;;5.10;2.22;;;;;;;21.56;55.93;100702.03;5096393;28;20044;-57
2023/05/14 10:42:25;;;;;;;7.28;2.33;;;;;;;21.56;55.86;100701.19;5095003;28;20048;-58
2023/05/14 10:44:58;;;;;;;4.68;2.15;;;;;;;21.55;55.97;100703.00;5095705;28;20403;-58
2023/05/14 10:47:27;;;;;;;5.43;2.60;;;;;;;21.56;56.22;100701.19;5095927;28;20040;-58
2023/05/14 10:49:57;;;;;;;4.55;1.83;;;;;;;21.57;56.18;100698.34;5095221;28;20052;-47
2023/05/14 10:52:25;;;;;;;6.07;2.00;;;;;;;21.57;55.99;100697.50;5095847;28;20499;-50
2023/05/14 10:54:53;;;;;;;3.35;1.63;;;;;;;21.56;55.87;100688.56;5095514;28;20063;-48
2023/05/14 10:57:22;;;;;;;4.13;1.90;;;;;;;21.58;56.19;100685.72;5093650;28;20058;-48
2023/05/14 10:59:55;;;;;;;5.45;1.75;;;;;;;21.57;55.96;100678.63;5075963;28;20052;-58
2023/05/14 11:02:25;;;;;;;4.57;1.77;;;;;;;21.60;55.92;100681.03;5075416;28;20047;-59
2023/05/14 11:04:56;;;;;;;4.00;1.73;;;;;;;21.59;55.63;100687.41;5075035;28;20439;-59
2023/05/14 11:07:29;;;;;;;5.63;1.40;;;;;;;21.58;55.36;100693.78;5075017;28;20052;-59
2023/05/14 11:10:01;;;;;;;5.03;1.45;;;;;;;21.56;55.32;100685.88;5075514;28;20060;-58
2023/05/14 11:12:29;;;;;;;2.38;1.10;;;;;;;21.52;55.15;100681.78;5094496;28;20040;-58
2023/05/14 11:14:58;;;;;;;1.95;0.80;;;;;;;21.48;54.88;100678.53;5086437;28;20057;-58
2023/05/14 11:17:27;;;;;;;2.92;1.48;;;;;;;21.46;54.86;100679.66;5074181;28;20412;-58
2023/05/14 11:19:55;;;;;;;4.25;1.50;;;;;;;21.43;54.85;100683.53;5075138;28;20059;-58
2023/05/14 11:22:23;;;;;;;2.30;0.80;;;;;;;21.42;54.94;100689.03;5075499;28;20056;-59
2023/05/14 11:24:51;;;;;;;2.20;0.85;;;;;;;21.43;55.20;100688.03;5075004;28;20048;-59
2023/05/14 11:27:20;;;;;;;2.20;1.00;;;;;;;21.44;54.96;100687.91;5074885;28;20044;-58
2023/05/14 11:29:48;;;;;;;3.70;1.20;;;;;;;21.43;55.00;100680.84;5074897;28;20051;-50